sensor_id;sensor_type;location;lat;lon;timestamp;P1;durP1;ratioP1;P2;durP2;ratioP2
12493;SDS011;8260;51.422;6.786;2022-07-03T00:01:48;2.90;;;2.10;;
12493;SDS011;8260;51.422;6.786;2022-07-03T00:04:17;4.60;;;2.33;;
12493;SDS011;8260;51.422;6.786;2022-07-03T00:06:48;2.50;;;1.85;;
12493;SDS011;8260;51.422;6.786;2022-07-03T00:09:16;2.88;;;2.03;;
12493;SDS011;8260;51.422;6.786;2022-07-03T00:11:46;2.72;;;2.45;;
12493;SDS011;8260;51.422;6.786;2022-07-03T00:14:14;4.55;;;2.15;;
12493;SDS011;8260;51.422;6.786;2022-07-03T00:16:43;3.22;;;1.98;;
12493;SDS011;8260;51.422;6.786;2022-07-03T00:19:11;2.85;;;2.10;;
12493;SDS011;8260;51.422;6.786;2022-07-03T00:21:42;2.05;;;1.90;;
12493;SDS011;8260;51.422;6.786;2022-07-03T00:24:18;2.10;;;1.90;;
12493;SDS011;8260;51.422;6.786;2022-07-03T00:26:49;2.53;;;1.83;;
12493;SDS011;8260;51.422;6.786;2022-07-03T00:29:22;2.15;;;1.92;;
12493;SDS011;8260;51.422;6.786;2022-07-03T00:31:50;2.75;;;2.00;;
12493;SDS011;8260;51.422;6.786;2022-07-03T00:34:19;3.45;;;1.90;;
12493;SDS011;8260;51.422;6.786;2022-07-03T00:36:48;3.50;;;2.00;;
12493;SDS011;8260;51.422;6.786;2022-07-03T00:39:18;3.15;;;1.83;;
12493;SDS011;8260;51.422;6.786;2022-07-03T00:41:46;2.92;;;1.92;;
12493;SDS011;8260;51.422;6.786;2022-07-03T00:44:14;3.10;;;1.88;;
12493;SDS011;8260;51.422;6.786;2022-07-03T00:46:43;2.25;;;2.05;;
12493;SDS011;8260;51.422;6.786;2022-07-03T00:49:14;3.15;;;2.67;;
12493;SDS011;8260;51.422;6.786;2022-07-03T00:51:44;2.70;;;2.47;;
12493;SDS011;8260;51.422;6.786;2022-07-03T00:54:21;3.05;;;2.42;;
12493;SDS011;8260;51.422;6.786;2022-07-03T00:56:50;3.25;;;2.10;;
12493;SDS011;8260;51.422;6.786;2022-07-03T00:59:18;2.90;;;2.42;;
12493;SDS011;8260;51.422;6.786;2022-07-03T01:01:47;4.18;;;2.30;;
12493;SDS011;8260;51.422;6.786;2022-07-03T01:04:21;4.40;;;2.58;;
12493;SDS011;8260;51.422;6.786;2022-07-03T01:06:53;3.13;;;2.30;;
12493;SDS011;8260;51.422;6.786;2022-07-03T01:09:32;3.53;;;2.70;;
12493;SDS011;8260;51.422;6.786;2022-07-03T01:12:03;2.45;;;2.08;;
12493;SDS011;8260;51.422;6.786;2022-07-03T01:14:38;5.63;;;2.47;;
12493;SDS011;8260;51.422;6.786;2022-07-03T01:17:16;3.13;;;2.00;;
12493;SDS011;8260;51.422;6.786;2022-07-03T01:19:48;5.10;;;2.40;;
12493;SDS011;8260;51.422;6.786;2022-07-03T01:22:28;2.38;;;2.17;;
12493;SDS011;8260;51.422;6.786;2022-07-03T01:25:07;1.98;;;1.83;;
12493;SDS011;8260;51.422;6.786;2022-07-03T01:27:48;4.25;;;2.30;;
12493;SDS011;8260;51.422;6.786;2022-07-03T01:30:19;2.90;;;2.20;;
12493;SDS011;8260;51.422;6.786;2022-07-03T01:32:50;4.97;;;2.80;;
12493;SDS011;8260;51.422;6.786;2022-07-03T01:35:22;4.07;;;2.20;;
12493;SDS011;8260;51.422;6.786;2022-07-03T01:37:54;2.40;;;2.20;;
12493;SDS011;8260;51.422;6.786;2022-07-03T01:40:23;4.28;;;2.10;;
12493;SDS011;8260;51.422;6.786;2022-07-03T01:42:53;3.25;;;2.28;;
12493;SDS011;8260;51.422;6.786;2022-07-03T01:45:22;4.68;;;2.25;;
12493;SDS011;8260;51.422;6.786;2022-07-03T01:47:51;2.63;;;2.08;;
12493;SDS011;8260;51.422;6.786;2022-07-03T01:50:20;2.47;;;1.90;;
12493;SDS011;8260;51.422;6.786;2022-07-03T01:52:49;4.30;;;2.22;;
12493;SDS011;8260;51.422;6.786;2022-07-03T01:55:18;3.90;;;2.25;;
12493;SDS011;8260;51.422;6.786;2022-07-03T01:57:47;3.05;;;2.25;;
12493;SDS011;8260;51.422;6.786;2022-07-03T02:00:19;4.15;;;2.58;;
12493;SDS011;8260;51.422;6.786;2022-07-03T02:02:50;2.60;;;2.40;;
12493;SDS011;8260;51.422;6.786;2022-07-03T02:05:22;2.15;;;1.95;;
12493;SDS011;8260;51.422;6.786;2022-07-03T02:07:58;2.65;;;2.05;;
12493;SDS011;8260;51.422;6.786;2022-07-03T02:10:29;3.20;;;2.03;;
12493;SDS011;8260;51.422;6.786;2022-07-03T02:12:59;2.30;;;2.10;;
12493;SDS011;8260;51.422;6.786;2022-07-03T02:15:30;2.28;;;2.08;;
12493;SDS011;8260;51.422;6.786;2022-07-03T02:18:00;3.78;;;2.40;;
12493;SDS011;8260;51.422;6.786;2022-07-03T02:20:34;2.40;;;2.20;;
12493;SDS011;8260;51.422;6.786;2022-07-03T02:23:03;2.60;;;1.95;;
12493;SDS011;8260;51.422;6.786;2022-07-03T02:25:34;2.42;;;2.17;;
12493;SDS011;8260;51.422;6.786;2022-07-03T02:28:03;4.88;;;2.58;;
12493;SDS011;8260;51.422;6.786;2022-07-03T02:30:35;5.50;;;2.20;;
12493;SDS011;8260;51.422;6.786;2022-07-03T02:33:04;4.13;;;2.00;;
12493;SDS011;8260;51.422;6.786;2022-07-03T02:35:33;2.17;;;1.98;;
12493;SDS011;8260;51.422;6.786;2022-07-03T02:38:03;2.47;;;2.28;;
12493;SDS011;8260;51.422;6.786;2022-07-03T02:40:33;2.47;;;2.00;;
12493;SDS011;8260;51.422;6.786;2022-07-03T02:43:08;2.25;;;1.83;;
12493;SDS011;8260;51.422;6.786;2022-07-03T02:45:42;2.67;;;2.20;;
12493;SDS011;8260;51.422;6.786;2022-07-03T02:48:12;2.80;;;2.60;;
12493;SDS011;8260;51.422;6.786;2022-07-03T02:50:45;3.92;;;2.35;;
12493;SDS011;8260;51.422;6.786;2022-07-03T02:53:15;4.20;;;2.20;;
12493;SDS011;8260;51.422;6.786;2022-07-03T02:55:47;2.58;;;2.10;;
12493;SDS011;8260;51.422;6.786;2022-07-03T02:58:27;2.63;;;2.20;;
12493;SDS011;8260;51.422;6.786;2022-07-03T03:01:02;3.75;;;2.50;;
12493;SDS011;8260;51.422;6.786;2022-07-03T03:03:31;3.55;;;2.10;;
12493;SDS011;8260;51.422;6.786;2022-07-03T03:06:01;3.50;;;2.30;;
12493;SDS011;8260;51.422;6.786;2022-07-03T03:08:33;3.20;;;2.28;;
12493;SDS011;8260;51.422;6.786;2022-07-03T03:11:05;3.42;;;2.17;;
12493;SDS011;8260;51.422;6.786;2022-07-03T03:13:34;2.40;;;2.20;;
12493;SDS011;8260;51.422;6.786;2022-07-03T03:16:05;2.60;;;2.20;;
12493;SDS011;8260;51.422;6.786;2022-07-03T03:18:35;4.07;;;2.25;;
12493;SDS011;8260;51.422;6.786;2022-07-03T03:21:05;3.03;;;2.30;;
12493;SDS011;8260;51.422;6.786;2022-07-03T03:23:35;2.47;;;2.25;;
12493;SDS011;8260;51.422;6.786;2022-07-03T03:26:06;3.00;;;2.40;;
12493;SDS011;8260;51.422;6.786;2022-07-03T03:28:34;3.13;;;2.80;;
12493;SDS011;8260;51.422;6.786;2022-07-03T03:31:04;3.28;;;2.20;;
12493;SDS011;8260;51.422;6.786;2022-07-03T03:33:36;3.33;;;2.58;;
12493;SDS011;8260;51.422;6.786;2022-07-03T03:36:05;2.58;;;2.38;;
12493;SDS011;8260;51.422;6.786;2022-07-03T03:38:33;3.20;;;2.40;;
12493;SDS011;8260;51.422;6.786;2022-07-03T03:41:02;4.45;;;2.65;;
12493;SDS011;8260;51.422;6.786;2022-07-03T03:43:30;4.63;;;2.75;;
12493;SDS011;8260;51.422;6.786;2022-07-03T03:45:59;3.30;;;2.42;;
12493;SDS011;8260;51.422;6.786;2022-07-03T03:48:30;2.42;;;2.22;;
12493;SDS011;8260;51.422;6.786;2022-07-03T03:50:59;3.13;;;2.40;;
12493;SDS011;8260;51.422;6.786;2022-07-03T03:53:28;4.82;;;3.00;;
12493;SDS011;8260;51.422;6.786;2022-07-03T03:56:00;3.40;;;2.33;;
12493;SDS011;8260;51.422;6.786;2022-07-03T03:58:30;2.75;;;2.28;;
12493;SDS011;8260;51.422;6.786;2022-07-03T04:00:59;3.80;;;2.15;;
12493;SDS011;8260;51.422;6.786;2022-07-03T04:03:28;2.60;;;2.35;;
12493;SDS011;8260;51.422;6.786;2022-07-03T04:05:58;3.63;;;2.58;;
12493;SDS011;8260;51.422;6.786;2022-07-03T04:08:27;3.80;;;2.60;;
12493;SDS011;8260;51.422;6.786;2022-07-03T04:10:56;3.05;;;2.60;;
12493;SDS011;8260;51.422;6.786;2022-07-03T04:13:24;3.15;;;2.78;;
12493;SDS011;8260;51.422;6.786;2022-07-03T04:15:53;3.78;;;2.60;;
12493;SDS011;8260;51.422;6.786;2022-07-03T04:18:22;3.30;;;2.75;;
12493;SDS011;8260;51.422;6.786;2022-07-03T04:20:58;3.38;;;2.80;;
12493;SDS011;8260;51.422;6.786;2022-07-03T04:23:27;3.72;;;3.13;;
12493;SDS011;8260;51.422;6.786;2022-07-03T04:25:55;3.38;;;2.92;;
12493;SDS011;8260;51.422;6.786;2022-07-03T04:28:24;5.57;;;3.40;;
12493;SDS011;8260;51.422;6.786;2022-07-03T04:30:52;3.20;;;2.90;;
12493;SDS011;8260;51.422;6.786;2022-07-03T04:33:21;3.38;;;3.05;;
12493;SDS011;8260;51.422;6.786;2022-07-03T04:35:52;4.32;;;3.10;;
12493;SDS011;8260;51.422;6.786;2022-07-03T04:38:21;4.53;;;3.00;;
12493;SDS011;8260;51.422;6.786;2022-07-03T04:40:50;4.47;;;3.22;;
12493;SDS011;8260;51.422;6.786;2022-07-03T04:43:18;2.97;;;2.78;;
12493;SDS011;8260;51.422;6.786;2022-07-03T04:45:47;3.95;;;2.90;;
12493;SDS011;8260;51.422;6.786;2022-07-03T04:48:15;5.22;;;3.22;;
12493;SDS011;8260;51.422;6.786;2022-07-03T04:50:43;5.00;;;2.85;;
12493;SDS011;8260;51.422;6.786;2022-07-03T04:53:12;3.50;;;3.13;;
12493;SDS011;8260;51.422;6.786;2022-07-03T04:55:41;5.13;;;3.08;;
12493;SDS011;8260;51.422;6.786;2022-07-03T04:58:10;3.10;;;2.80;;
12493;SDS011;8260;51.422;6.786;2022-07-03T05:00:38;3.67;;;2.90;;
12493;SDS011;8260;51.422;6.786;2022-07-03T05:03:10;3.22;;;2.88;;
12493;SDS011;8260;51.422;6.786;2022-07-03T05:05:38;5.00;;;2.85;;
12493;SDS011;8260;51.422;6.786;2022-07-03T05:08:07;5.85;;;3.30;;
12493;SDS011;8260;51.422;6.786;2022-07-03T05:10:35;3.60;;;3.25;;
12493;SDS011;8260;51.422;6.786;2022-07-03T05:13:05;3.88;;;2.80;;
12493;SDS011;8260;51.422;6.786;2022-07-03T05:15:33;4.30;;;2.72;;
12493;SDS011;8260;51.422;6.786;2022-07-03T05:18:01;3.45;;;3.15;;
12493;SDS011;8260;51.422;6.786;2022-07-03T05:20:30;4.38;;;3.03;;
12493;SDS011;8260;51.422;6.786;2022-07-03T05:22:59;3.95;;;3.22;;
12493;SDS011;8260;51.422;6.786;2022-07-03T05:25:29;6.78;;;3.00;;
12493;SDS011;8260;51.422;6.786;2022-07-03T05:27:57;3.00;;;2.80;;
12493;SDS011;8260;51.422;6.786;2022-07-03T05:30:27;6.03;;;3.10;;
12493;SDS011;8260;51.422;6.786;2022-07-03T05:32:56;4.50;;;4.03;;
12493;SDS011;8260;51.422;6.786;2022-07-03T05:35:24;5.88;;;5.35;;
12493;SDS011;8260;51.422;6.786;2022-07-03T05:37:52;5.07;;;4.57;;
12493;SDS011;8260;51.422;6.786;2022-07-03T05:40:21;6.82;;;4.72;;
12493;SDS011;8260;51.422;6.786;2022-07-03T05:42:49;5.75;;;4.68;;
12493;SDS011;8260;51.422;6.786;2022-07-03T05:45:18;6.93;;;4.55;;
12493;SDS011;8260;51.422;6.786;2022-07-03T05:47:48;5.72;;;4.63;;
12493;SDS011;8260;51.422;6.786;2022-07-03T05:50:17;6.15;;;5.13;;
12493;SDS011;8260;51.422;6.786;2022-07-03T05:52:45;6.15;;;5.22;;
12493;SDS011;8260;51.422;6.786;2022-07-03T05:55:13;7.38;;;4.75;;
12493;SDS011;8260;51.422;6.786;2022-07-03T05:57:42;5.45;;;4.25;;
12493;SDS011;8260;51.422;6.786;2022-07-03T06:00:11;7.65;;;5.10;;
12493;SDS011;8260;51.422;6.786;2022-07-03T06:02:39;5.55;;;4.75;;
12493;SDS011;8260;51.422;6.786;2022-07-03T06:05:09;5.20;;;4.68;;
12493;SDS011;8260;51.422;6.786;2022-07-03T06:07:38;6.97;;;5.03;;
12493;SDS011;8260;51.422;6.786;2022-07-03T06:10:06;5.38;;;4.88;;
12493;SDS011;8260;51.422;6.786;2022-07-03T06:12:35;6.53;;;5.03;;
12493;SDS011;8260;51.422;6.786;2022-07-03T06:15:03;5.95;;;5.35;;
12493;SDS011;8260;51.422;6.786;2022-07-03T06:17:34;4.53;;;4.13;;
12493;SDS011;8260;51.422;6.786;2022-07-03T06:20:03;7.95;;;4.68;;
12493;SDS011;8260;51.422;6.786;2022-07-03T06:22:33;5.68;;;5.05;;
12493;SDS011;8260;51.422;6.786;2022-07-03T06:25:01;5.05;;;4.50;;
12493;SDS011;8260;51.422;6.786;2022-07-03T06:27:30;6.55;;;5.40;;
12493;SDS011;8260;51.422;6.786;2022-07-03T06:29:58;4.90;;;4.40;;
12493;SDS011;8260;51.422;6.786;2022-07-03T06:32:27;5.60;;;5.07;;
12493;SDS011;8260;51.422;6.786;2022-07-03T06:34:55;5.22;;;4.72;;
12493;SDS011;8260;51.422;6.786;2022-07-03T06:37:24;7.53;;;4.88;;
12493;SDS011;8260;51.422;6.786;2022-07-03T06:39:53;4.68;;;4.28;;
12493;SDS011;8260;51.422;6.786;2022-07-03T06:42:22;5.20;;;4.70;;
12493;SDS011;8260;51.422;6.786;2022-07-03T06:44:50;6.28;;;5.00;;
12493;SDS011;8260;51.422;6.786;2022-07-03T06:47:19;9.98;;;5.13;;
12493;SDS011;8260;51.422;6.786;2022-07-03T06:49:47;5.22;;;4.72;;
12493;SDS011;8260;51.422;6.786;2022-07-03T06:52:16;6.05;;;5.03;;
12493;SDS011;8260;51.422;6.786;2022-07-03T06:54:44;8.02;;;4.65;;
12493;SDS011;8260;51.422;6.786;2022-07-03T06:57:14;5.32;;;4.32;;
12493;SDS011;8260;51.422;6.786;2022-07-03T06:59:42;6.20;;;4.45;;
12493;SDS011;8260;51.422;6.786;2022-07-03T07:02:11;4.97;;;3.70;;
12493;SDS011;8260;51.422;6.786;2022-07-03T07:04:39;6.22;;;4.03;;
12493;SDS011;8260;51.422;6.786;2022-07-03T07:07:08;6.47;;;3.83;;
12493;SDS011;8260;51.422;6.786;2022-07-03T07:09:36;4.30;;;3.13;;
12493;SDS011;8260;51.422;6.786;2022-07-03T07:12:05;3.58;;;2.90;;
12493;SDS011;8260;51.422;6.786;2022-07-03T07:14:35;3.05;;;2.72;;
12493;SDS011;8260;51.422;6.786;2022-07-03T07:17:04;3.85;;;2.92;;
12493;SDS011;8260;51.422;6.786;2022-07-03T07:19:32;6.47;;;3.33;;
12493;SDS011;8260;51.422;6.786;2022-07-03T07:22:00;4.50;;;2.80;;
12493;SDS011;8260;51.422;6.786;2022-07-03T07:24:29;3.78;;;2.92;;
12493;SDS011;8260;51.422;6.786;2022-07-03T07:26:57;3.55;;;3.25;;
12493;SDS011;8260;51.422;6.786;2022-07-03T07:29:26;7.32;;;3.05;;
12493;SDS011;8260;51.422;6.786;2022-07-03T07:31:55;5.20;;;3.00;;
12493;SDS011;8260;51.422;6.786;2022-07-03T07:34:24;7.95;;;3.50;;
12493;SDS011;8260;51.422;6.786;2022-07-03T07:36:52;3.22;;;2.55;;
12493;SDS011;8260;51.422;6.786;2022-07-03T07:39:21;3.30;;;3.00;;
12493;SDS011;8260;51.422;6.786;2022-07-03T07:41:49;7.32;;;3.33;;
12493;SDS011;8260;51.422;6.786;2022-07-03T07:44:18;5.35;;;2.80;;
12493;SDS011;8260;51.422;6.786;2022-07-03T07:46:46;4.57;;;2.80;;
12493;SDS011;8260;51.422;6.786;2022-07-03T07:49:16;3.33;;;2.60;;
12493;SDS011;8260;51.422;6.786;2022-07-03T07:51:44;5.57;;;2.63;;
12493;SDS011;8260;51.422;6.786;2022-07-03T07:54:13;4.18;;;3.22;;
12493;SDS011;8260;51.422;6.786;2022-07-03T07:56:41;3.63;;;2.40;;
12493;SDS011;8260;51.422;6.786;2022-07-03T07:59:10;3.08;;;2.30;;
12493;SDS011;8260;51.422;6.786;2022-07-03T08:01:38;5.22;;;2.60;;
12493;SDS011;8260;51.422;6.786;2022-07-03T08:04:25;3.47;;;2.50;;
12493;SDS011;8260;51.422;6.786;2022-07-03T08:07:11;3.55;;;2.53;;
12493;SDS011;8260;51.422;6.786;2022-07-03T08:09:40;3.03;;;2.13;;
12493;SDS011;8260;51.422;6.786;2022-07-03T08:12:09;3.90;;;2.95;;
12493;SDS011;8260;51.422;6.786;2022-07-03T08:14:37;2.80;;;2.20;;
12493;SDS011;8260;51.422;6.786;2022-07-03T08:17:05;3.25;;;2.33;;
12493;SDS011;8260;51.422;6.786;2022-07-03T08:19:35;5.57;;;2.80;;
12493;SDS011;8260;51.422;6.786;2022-07-03T08:22:04;2.75;;;2.45;;
12493;SDS011;8260;51.422;6.786;2022-07-03T08:24:32;4.40;;;2.50;;
12493;SDS011;8260;51.422;6.786;2022-07-03T08:27:00;4.75;;;2.47;;
12493;SDS011;8260;51.422;6.786;2022-07-03T08:29:29;4.30;;;2.90;;
12493;SDS011;8260;51.422;6.786;2022-07-03T08:32:02;6.32;;;2.88;;
12493;SDS011;8260;51.422;6.786;2022-07-03T08:34:30;2.78;;;2.58;;
12493;SDS011;8260;51.422;6.786;2022-07-03T08:37:00;3.92;;;2.50;;
12493;SDS011;8260;51.422;6.786;2022-07-03T08:39:29;3.45;;;2.50;;
12493;SDS011;8260;51.422;6.786;2022-07-03T08:41:57;3.35;;;2.58;;
12493;SDS011;8260;51.422;6.786;2022-07-03T08:44:26;3.88;;;2.47;;
12493;SDS011;8260;51.422;6.786;2022-07-03T08:46:55;4.00;;;2.70;;
12493;SDS011;8260;51.422;6.786;2022-07-03T08:49:24;3.83;;;2.70;;
12493;SDS011;8260;51.422;6.786;2022-07-03T08:51:53;3.95;;;2.70;;
12493;SDS011;8260;51.422;6.786;2022-07-03T08:54:24;3.50;;;2.90;;
12493;SDS011;8260;51.422;6.786;2022-07-03T08:56:52;3.53;;;2.63;;
12493;SDS011;8260;51.422;6.786;2022-07-03T08:59:21;7.72;;;2.47;;
12493;SDS011;8260;51.422;6.786;2022-07-03T09:01:51;5.40;;;3.20;;
12493;SDS011;8260;51.422;6.786;2022-07-03T09:04:19;3.22;;;2.83;;
12493;SDS011;8260;51.422;6.786;2022-07-03T09:06:49;3.97;;;2.60;;
12493;SDS011;8260;51.422;6.786;2022-07-03T09:09:22;5.28;;;2.60;;
12493;SDS011;8260;51.422;6.786;2022-07-03T09:11:51;3.92;;;2.75;;
12493;SDS011;8260;51.422;6.786;2022-07-03T09:14:20;4.57;;;3.03;;
12493;SDS011;8260;51.422;6.786;2022-07-03T09:16:49;3.17;;;2.35;;
12493;SDS011;8260;51.422;6.786;2022-07-03T09:22:00;5.30;;;2.50;;
12493;SDS011;8260;51.422;6.786;2022-07-03T09:24:29;4.10;;;2.50;;
12493;SDS011;8260;51.422;6.786;2022-07-03T09:27:02;2.80;;;2.60;;
12493;SDS011;8260;51.422;6.786;2022-07-03T09:29:30;4.22;;;2.60;;
12493;SDS011;8260;51.422;6.786;2022-07-03T09:31:59;3.08;;;2.00;;
12493;SDS011;8260;51.422;6.786;2022-07-03T09:34:27;3.15;;;2.33;;
12493;SDS011;8260;51.422;6.786;2022-07-03T09:36:56;3.08;;;2.80;;
12493;SDS011;8260;51.422;6.786;2022-07-03T09:39:25;4.07;;;2.67;;
12493;SDS011;8260;51.422;6.786;2022-07-03T09:41:57;3.85;;;2.60;;
12493;SDS011;8260;51.422;6.786;2022-07-03T09:44:30;2.88;;;2.40;;
12493;SDS011;8260;51.422;6.786;2022-07-03T09:47:06;3.58;;;2.28;;
12493;SDS011;8260;51.422;6.786;2022-07-03T09:49:44;3.20;;;2.45;;
12493;SDS011;8260;51.422;6.786;2022-07-03T09:52:25;4.80;;;2.50;;
12493;SDS011;8260;51.422;6.786;2022-07-03T09:54:55;3.00;;;2.42;;
12493;SDS011;8260;51.422;6.786;2022-07-03T09:57:23;4.65;;;2.60;;
12493;SDS011;8260;51.422;6.786;2022-07-03T10:00:18;4.93;;;3.28;;
12493;SDS011;8260;51.422;6.786;2022-07-03T10:02:51;2.88;;;2.50;;
12493;SDS011;8260;51.422;6.786;2022-07-03T10:05:20;3.30;;;3.00;;
12493;SDS011;8260;51.422;6.786;2022-07-03T10:07:49;4.25;;;2.95;;
12493;SDS011;8260;51.422;6.786;2022-07-03T10:10:19;5.47;;;3.75;;
12493;SDS011;8260;51.422;6.786;2022-07-03T10:12:48;4.18;;;3.78;;
12493;SDS011;8260;51.422;6.786;2022-07-03T10:15:19;3.78;;;2.80;;
12493;SDS011;8260;51.422;6.786;2022-07-03T10:17:48;4.03;;;3.00;;
12493;SDS011;8260;51.422;6.786;2022-07-03T10:20:19;5.68;;;3.05;;
12493;SDS011;8260;51.422;6.786;2022-07-03T10:22:51;4.40;;;2.85;;
12493;SDS011;8260;51.422;6.786;2022-07-03T10:25:19;4.03;;;2.85;;
12493;SDS011;8260;51.422;6.786;2022-07-03T10:27:48;7.03;;;2.97;;
12493;SDS011;8260;51.422;6.786;2022-07-03T10:30:17;4.38;;;2.53;;
12493;SDS011;8260;51.422;6.786;2022-07-03T10:32:47;6.88;;;2.47;;
12493;SDS011;8260;51.422;6.786;2022-07-03T10:35:19;3.10;;;2.55;;
12493;SDS011;8260;51.422;6.786;2022-07-03T10:38:06;3.47;;;3.10;;
12493;SDS011;8260;51.422;6.786;2022-07-03T10:40:39;4.03;;;2.50;;
12493;SDS011;8260;51.422;6.786;2022-07-03T10:43:27;5.40;;;2.88;;
12493;SDS011;8260;51.422;6.786;2022-07-03T10:46:14;4.68;;;2.67;;
12493;SDS011;8260;51.422;6.786;2022-07-03T10:51:55;5.10;;;2.85;;
12493;SDS011;8260;51.422;6.786;2022-07-03T10:54:24;5.03;;;2.97;;
12493;SDS011;8260;51.422;6.786;2022-07-03T10:57:09;3.30;;;2.88;;
12493;SDS011;8260;51.422;6.786;2022-07-03T10:59:56;4.63;;;2.72;;
12493;SDS011;8260;51.422;6.786;2022-07-03T11:02:26;3.78;;;2.88;;
12493;SDS011;8260;51.422;6.786;2022-07-03T11:05:08;3.15;;;2.50;;
12493;SDS011;8260;51.422;6.786;2022-07-03T11:10:29;3.10;;;2.10;;
12493;SDS011;8260;51.422;6.786;2022-07-03T11:12:58;4.65;;;2.42;;
12493;SDS011;8260;51.422;6.786;2022-07-03T11:15:28;2.97;;;2.40;;
12493;SDS011;8260;51.422;6.786;2022-07-03T11:18:13;2.90;;;2.40;;
12493;SDS011;8260;51.422;6.786;2022-07-03T11:23:30;2.92;;;1.98;;
12493;SDS011;8260;51.422;6.786;2022-07-03T11:28:51;6.10;;;2.50;;
12493;SDS011;8260;51.422;6.786;2022-07-03T11:31:20;2.75;;;1.90;;
12493;SDS011;8260;51.422;6.786;2022-07-03T11:33:55;6.15;;;3.50;;
12493;SDS011;8260;51.422;6.786;2022-07-03T11:36:24;3.40;;;2.30;;
12493;SDS011;8260;51.422;6.786;2022-07-03T11:39:02;13.25;;;8.30;;
12493;SDS011;8260;51.422;6.786;2022-07-03T11:41:41;8.18;;;4.95;;
12493;SDS011;8260;51.422;6.786;2022-07-03T11:44:14;4.10;;;2.47;;
12493;SDS011;8260;51.422;6.786;2022-07-03T11:46:46;3.05;;;1.77;;
12493;SDS011;8260;51.422;6.786;2022-07-03T11:49:16;4.35;;;1.98;;
12493;SDS011;8260;51.422;6.786;2022-07-03T11:51:53;2.78;;;1.80;;
12493;SDS011;8260;51.422;6.786;2022-07-03T11:54:21;2.67;;;1.90;;
12493;SDS011;8260;51.422;6.786;2022-07-03T11:56:50;1.90;;;1.80;;
12493;SDS011;8260;51.422;6.786;2022-07-03T11:59:20;4.90;;;1.90;;
12493;SDS011;8260;51.422;6.786;2022-07-03T12:01:49;2.85;;;1.90;;
12493;SDS011;8260;51.422;6.786;2022-07-03T12:04:19;4.85;;;2.35;;
12493;SDS011;8260;51.422;6.786;2022-07-03T12:06:49;3.17;;;1.70;;
12493;SDS011;8260;51.422;6.786;2022-07-03T12:09:18;2.88;;;2.00;;
12493;SDS011;8260;51.422;6.786;2022-07-03T12:11:54;2.60;;;1.90;;
12493;SDS011;8260;51.422;6.786;2022-07-03T12:14:41;2.00;;;1.80;;
12493;SDS011;8260;51.422;6.786;2022-07-03T12:17:12;2.45;;;1.70;;
12493;SDS011;8260;51.422;6.786;2022-07-03T12:19:44;3.50;;;1.63;;
12493;SDS011;8260;51.422;6.786;2022-07-03T12:22:21;3.50;;;2.28;;
12493;SDS011;8260;51.422;6.786;2022-07-03T12:24:54;2.45;;;1.67;;
12493;SDS011;8260;51.422;6.786;2022-07-03T12:27:23;5.25;;;2.08;;
12493;SDS011;8260;51.422;6.786;2022-07-03T12:29:53;3.78;;;1.65;;
12493;SDS011;8260;51.422;6.786;2022-07-03T12:32:21;2.67;;;1.77;;
12493;SDS011;8260;51.422;6.786;2022-07-03T12:34:50;4.10;;;1.80;;
12493;SDS011;8260;51.422;6.786;2022-07-03T12:37:30;3.65;;;1.92;;
12493;SDS011;8260;51.422;6.786;2022-07-03T12:39:59;2.15;;;1.63;;
12493;SDS011;8260;51.422;6.786;2022-07-03T12:42:27;2.80;;;1.67;;
12493;SDS011;8260;51.422;6.786;2022-07-03T12:44:58;3.15;;;1.70;;
12493;SDS011;8260;51.422;6.786;2022-07-03T12:47:27;2.13;;;1.70;;
12493;SDS011;8260;51.422;6.786;2022-07-03T12:49:56;2.85;;;1.75;;
12493;SDS011;8260;51.422;6.786;2022-07-03T12:52:24;2.50;;;1.85;;
12493;SDS011;8260;51.422;6.786;2022-07-03T12:54:53;2.47;;;1.67;;
12493;SDS011;8260;51.422;6.786;2022-07-03T12:57:21;2.17;;;1.90;;
12493;SDS011;8260;51.422;6.786;2022-07-03T13:00:10;2.00;;;1.80;;
12493;SDS011;8260;51.422;6.786;2022-07-03T13:02:43;3.35;;;1.67;;
12493;SDS011;8260;51.422;6.786;2022-07-03T13:05:15;2.65;;;1.80;;
12493;SDS011;8260;51.422;6.786;2022-07-03T13:07:44;2.28;;;1.50;;
12493;SDS011;8260;51.422;6.786;2022-07-03T13:10:13;3.50;;;2.10;;
12493;SDS011;8260;51.422;6.786;2022-07-03T13:12:46;3.22;;;1.50;;
12493;SDS011;8260;51.422;6.786;2022-07-03T13:15:16;3.33;;;1.73;;
12493;SDS011;8260;51.422;6.786;2022-07-03T13:17:50;2.67;;;1.48;;
12493;SDS011;8260;51.422;6.786;2022-07-03T13:20:18;2.95;;;1.50;;
12493;SDS011;8260;51.422;6.786;2022-07-03T13:22:47;1.98;;;1.40;;
12493;SDS011;8260;51.422;6.786;2022-07-03T13:25:15;2.90;;;1.50;;
12493;SDS011;8260;51.422;6.786;2022-07-03T13:27:44;5.07;;;1.42;;
12493;SDS011;8260;51.422;6.786;2022-07-03T13:30:12;2.72;;;1.42;;
12493;SDS011;8260;51.422;6.786;2022-07-03T13:32:43;2.15;;;1.58;;
12493;SDS011;8260;51.422;6.786;2022-07-03T13:35:12;2.95;;;1.40;;
12493;SDS011;8260;51.422;6.786;2022-07-03T13:37:40;2.42;;;1.20;;
12493;SDS011;8260;51.422;6.786;2022-07-03T13:40:09;4.03;;;1.25;;
12493;SDS011;8260;51.422;6.786;2022-07-03T13:42:39;1.80;;;1.42;;
12493;SDS011;8260;51.422;6.786;2022-07-03T13:45:07;2.42;;;1.50;;
12493;SDS011;8260;51.422;6.786;2022-07-03T13:47:35;2.67;;;1.40;;
12493;SDS011;8260;51.422;6.786;2022-07-03T13:50:05;2.92;;;1.67;;
12493;SDS011;8260;51.422;6.786;2022-07-03T13:52:34;2.72;;;1.67;;
12493;SDS011;8260;51.422;6.786;2022-07-03T13:55:03;1.58;;;1.35;;
12493;SDS011;8260;51.422;6.786;2022-07-03T13:57:31;1.55;;;1.45;;
12493;SDS011;8260;51.422;6.786;2022-07-03T14:00:00;1.98;;;1.40;;
12493;SDS011;8260;51.422;6.786;2022-07-03T14:02:29;2.75;;;1.55;;
12493;SDS011;8260;51.422;6.786;2022-07-03T14:04:58;2.45;;;1.60;;
12493;SDS011;8260;51.422;6.786;2022-07-03T14:07:28;1.77;;;1.58;;
12493;SDS011;8260;51.422;6.786;2022-07-03T14:09:57;1.70;;;1.60;;
12493;SDS011;8260;51.422;6.786;2022-07-03T14:12:25;2.95;;;1.40;;
12493;SDS011;8260;51.422;6.786;2022-07-03T14:14:54;1.65;;;1.50;;
12493;SDS011;8260;51.422;6.786;2022-07-03T14:17:23;1.73;;;1.48;;
12493;SDS011;8260;51.422;6.786;2022-07-03T14:19:53;1.95;;;1.45;;
12493;SDS011;8260;51.422;6.786;2022-07-03T14:22:21;2.88;;;1.80;;
12493;SDS011;8260;51.422;6.786;2022-07-03T14:24:51;3.03;;;1.67;;
12493;SDS011;8260;51.422;6.786;2022-07-03T14:27:20;2.00;;;1.75;;
12493;SDS011;8260;51.422;6.786;2022-07-03T14:30:06;2.65;;;1.63;;
12493;SDS011;8260;51.422;6.786;2022-07-03T14:32:52;1.75;;;1.48;;
12493;SDS011;8260;51.422;6.786;2022-07-03T14:35:20;4.60;;;1.73;;
12493;SDS011;8260;51.422;6.786;2022-07-03T14:37:49;1.92;;;1.23;;
12493;SDS011;8260;51.422;6.786;2022-07-03T14:40:19;3.10;;;1.40;;
12493;SDS011;8260;51.422;6.786;2022-07-03T14:42:48;2.05;;;1.33;;
12493;SDS011;8260;51.422;6.786;2022-07-03T14:45:16;2.53;;;1.50;;
12493;SDS011;8260;51.422;6.786;2022-07-03T14:47:45;3.10;;;1.40;;
12493;SDS011;8260;51.422;6.786;2022-07-03T14:50:14;1.50;;;1.40;;
12493;SDS011;8260;51.422;6.786;2022-07-03T14:52:42;3.95;;;1.52;;
12493;SDS011;8260;51.422;6.786;2022-07-03T14:55:11;1.40;;;1.27;;
12493;SDS011;8260;51.422;6.786;2022-07-03T14:57:45;2.67;;;1.60;;
12493;SDS011;8260;51.422;6.786;2022-07-03T15:00:15;1.60;;;1.50;;
12493;SDS011;8260;51.422;6.786;2022-07-03T15:02:45;1.77;;;1.50;;
12493;SDS011;8260;51.422;6.786;2022-07-03T15:05:16;2.55;;;1.30;;
12493;SDS011;8260;51.422;6.786;2022-07-03T15:07:47;3.45;;;1.52;;
12493;SDS011;8260;51.422;6.786;2022-07-03T15:10:21;1.48;;;1.33;;
12493;SDS011;8260;51.422;6.786;2022-07-03T15:12:52;1.50;;;1.38;;
12493;SDS011;8260;51.422;6.786;2022-07-03T15:15:21;2.20;;;1.38;;
12493;SDS011;8260;51.422;6.786;2022-07-03T15:17:50;1.67;;;1.50;;
12493;SDS011;8260;51.422;6.786;2022-07-03T15:20:20;1.40;;;1.30;;
12493;SDS011;8260;51.422;6.786;2022-07-03T15:22:50;3.33;;;1.58;;
12493;SDS011;8260;51.422;6.786;2022-07-03T15:25:19;3.60;;;1.30;;
12493;SDS011;8260;51.422;6.786;2022-07-03T15:27:50;2.53;;;1.55;;
12493;SDS011;8260;51.422;6.786;2022-07-03T15:30:20;3.22;;;1.40;;
12493;SDS011;8260;51.422;6.786;2022-07-03T15:32:50;2.00;;;1.20;;
12493;SDS011;8260;51.422;6.786;2022-07-03T15:35:19;1.90;;;1.70;;